»·PEaware :: N3891R KSNA-KBUR

N3891R :: KSNA-KBUR

FLIGHT INFORMATION

Flight Status: Arrived
Operator: Privately registered:
United States
More flights under this callsign
Pilot: Markus B. (22479)
Aircraft: CESSNA 172 SKYHAWK
(C172)
More flights by this aircraft type
Origin: KSNA John Wayne-Orange Co
United States
Destination: KBUR Bob Hope-Burbank
United States
More flights between these airports :: More routes between these airports
Route: +SLI V23 POPPR SMO125 SMO SMO311 SILEX
File this flight plan on PilotEdge
Remarks: I-3
Altitude:
(Current/Filed)
4,000ft
Speed:
(Current/Filed)
120kts
Departed: 30-Dec-18 12:17 PM
Arrived: 30-Dec-18 12:51 PM
Distance/Time
Traveled:
40nm/0:34
Distance/Time
To Go:
Arrived

Flight Plot

Page will automatically refresh every two minutes.


Map Options




Map Legend


Flown Route
Filed Route
Departure Airport
Arrival Airport
Navaid (VOR, NDB)
Fix

Horizontal Profiles

Position Reports

Time Latitude Longitude Heading Altitude Ground
Speed
30-Dec-18 11:51 33.672457 -117.873202 208 60ft 0kts
30-Dec-18 11:52 33.672457 -117.873202 208 60ft 0kts
30-Dec-18 11:53 33.672457 -117.873202 208 60ft 0kts
30-Dec-18 11:54 33.672457 -117.873202 208 60ft 0kts
30-Dec-18 11:55 33.672457 -117.873202 208 60ft 0kts
30-Dec-18 11:56 33.672457 -117.873202 208 60ft 0kts
30-Dec-18 11:57 33.672457 -117.873202 208 60ft 0kts
30-Dec-18 11:58 33.672457 -117.873202 208 60ft 0kts
30-Dec-18 11:59 33.672457 -117.873202 208 60ft 0kts
30-Dec-18 12:00 33.672457 -117.873202 208 60ft 0kts
30-Dec-18 12:01 33.672456 -117.873202 208 60ft 0kts
30-Dec-18 12:02 33.672457 -117.873202 208 60ft 0kts
30-Dec-18 12:03 33.672457 -117.873202 208 60ft 0kts
30-Dec-18 12:04 33.672457 -117.873202 208 60ft 0kts
30-Dec-18 12:05 33.672457 -117.873202 208 60ft 0kts
30-Dec-18 12:06 33.672457 -117.873202 208 60ft 0kts
30-Dec-18 12:07 33.672457 -117.873202 208 60ft 0kts
30-Dec-18 12:08 33.672457 -117.873202 208 60ft 0kts
30-Dec-18 12:09 33.673156 -117.871930 28 60ft 16kts
30-Dec-18 12:10 33.676730 -117.869669 24 60ft 11kts
30-Dec-18 12:11 33.679268 -117.868101 20 60ft 9kts
30-Dec-18 12:12 33.681152 -117.866949 56 60ft 5kts
30-Dec-18 12:13 33.681232 -117.866556 100 60ft 0kts
30-Dec-18 12:14 33.681232 -117.866556 100 60ft 0kts
30-Dec-18 12:15 33.681203 -117.866405 104 60ft 7kts
30-Dec-18 12:16 33.669586 -117.874393 229 461ft 80kts
30-Dec-18 12:17 33.659881 -117.905053 246 1008ft 111kts
30-Dec-18 12:18 33.647639 -117.939054 246 1607ft 111kts
30-Dec-18 12:19 33.635692 -117.972224 246 2277ft 106kts
30-Dec-18 12:20 33.649524 -117.997881 326 2967ft 103kts
30-Dec-18 12:21 33.673061 -118.016665 326 3666ft 100kts
30-Dec-18 12:22 33.698193 -118.036671 326 3953ft 122kts
30-Dec-18 12:23 33.725962 -118.058599 326 3951ft 118kts
30-Dec-18 12:24 33.753260 -118.080123 326 3951ft 117kts
30-Dec-18 12:25 33.780525 -118.101587 326 3951ft 117kts
30-Dec-18 12:26 33.802202 -118.129385 293 3947ft 117kts
30-Dec-18 12:27 33.812973 -118.166518 287 3946ft 117kts
30-Dec-18 12:28 33.822598 -118.203996 287 3946ft 117kts
30-Dec-18 12:29 33.832206 -118.241758 287 3946ft 118kts
30-Dec-18 12:30 33.841739 -118.279388 287 3946ft 118kts
30-Dec-18 12:31 33.863622 -118.307730 316 3943ft 117kts
30-Dec-18 12:32 33.888252 -118.333661 320 3943ft 117kts
30-Dec-18 12:33 33.913356 -118.358947 320 3943ft 117kts
30-Dec-18 12:34 33.938458 -118.384167 320 3943ft 117kts
30-Dec-18 12:35 33.963568 -118.409389 320 3943ft 117kts
30-Dec-18 12:36 33.988615 -118.434582 320 3943ft 117kts
30-Dec-18 12:37 34.014032 -118.459472 326 3943ft 117kts
30-Dec-18 12:38 34.041116 -118.481371 326 3943ft 118kts
30-Dec-18 12:39 34.068502 -118.503550 326 3943ft 118kts
30-Dec-18 12:40 34.095823 -118.525262 327 3943ft 118kts
30-Dec-18 12:41 34.122962 -118.546583 327 3943ft 118kts
30-Dec-18 12:42 34.150661 -118.568025 337 3941ft 118kts
30-Dec-18 12:43 34.185059 -118.567871 3 3454ft 123kts
30-Dec-18 12:44 34.211773 -118.551982 85 3015ft 116kts
30-Dec-18 12:45 34.197312 -118.520375 123 2729ft 113kts
30-Dec-18 12:46 34.192896 -118.479873 81 1809ft 130kts
30-Dec-18 12:47 34.195338 -118.439386 102 1487ft 110kts
30-Dec-18 12:48 34.198658 -118.401984 92 1441ft 132kts
30-Dec-18 12:49 34.197868 -118.365957 91 788ft 81kts
30-Dec-18 12:50 34.197712 -118.352984 74 781ft 16kts
30-Dec-18 12:51 34.198515 -118.352151 334 781ft 0kts
30-Dec-18 12:52 34.198515 -118.352151 334 781ft 0kts
30-Dec-18 12:53 34.198885 -118.358566 268 781ft 29kts
30-Dec-18 12:54 34.199197 -118.363246 310 781ft 19kts
30-Dec-18 12:55 34.200160 -118.364244 272 781ft 0kts

Navigation Log

Ident Type
Flight plan parsing failed, navigation log unavailable